Big Torch Key, Florida
Current Conditions -  °F | °C
As of 4:53 AM on Sunday 25 Jan 2015 (Local Time) from KNQX Reporting Station
Overcast Overcast  
Wind Chill: 66°   Ceiling: 4000
Heat Index: 66°   Visibility: 10mi
Dew Point: 53°   Wind: 12mph
Humidity: 63%   Direction: 10°N
Pressure: 30.03"   Gusts: NA
Location:  24.6465°N, 81.5399°W
Report Text: KNQX 250953Z AUTO 01010KT 10SM OVC040 19/12 A3003 RMK AO2 SLP167 T01890117 $
Loading
Personal Weather Stations






























Interactive Weather Map New forecast layout! Learn more

10-Day Weather Forecast

Advertisements
Track Severe Weather on mobile